Time;durP1;ratioP1;P1;durP2;ratioP2;P2;SDS_P1;SDS_P2;PMS_P1;PMS_P2;Temp;Humidity;BMP_temperature;BMP_pressure;BME280_temperature;BME280_humidity;BME280_pressure;Samples;Min_cycle;Max_cycle;Signal;HPM_P1;HPM_P2
2023/11/12 00:02:20;;;;;;;2.53;2.30;;;4.40;99.90;;;;;;5012293;28;20221;-68
2023/11/12 00:04:47;;;;;;;4.33;2.60;;;4.40;99.90;;;;;;5012150;28;20202;-68
2023/11/12 00:07:12;;;;;;;3.20;2.90;;;4.40;99.90;;;;;;5012266;28;20702;-68
2023/11/12 00:09:39;;;;;;;2.80;2.47;;;4.40;99.90;;;;;;5012217;28;20437;-67
2023/11/12 00:12:06;;;;;;;3.77;2.30;;;4.40;99.90;;;;;;5012302;28;20166;-68
2023/11/12 00:14:32;;;;;;;3.00;2.70;;;4.40;99.90;;;;;;5011897;28;20430;-68
2023/11/12 00:16:57;;;;;;;2.13;1.90;;;4.40;99.90;;;;;;5012195;28;20463;-68
2023/11/12 00:19:23;;;;;;;3.47;2.20;;;4.40;99.90;;;;;;5012037;28;20206;-67
2023/11/12 00:21:49;;;;;;;3.43;3.13;;;4.50;99.90;;;;;;5016026;28;20201;-67
2023/11/12 00:24:17;;;;;;;2.43;2.23;;;4.50;99.90;;;;;;5015932;28;20171;-67
2023/11/12 00:26:43;;;;;;;2.40;2.20;;;4.50;99.90;;;;;;5016129;28;20178;-67
2023/11/12 00:29:08;;;;;;;2.80;2.33;;;4.50;99.90;;;;;;5015961;28;20442;-67
2023/11/12 00:31:34;;;;;;;2.20;2.00;;;4.60;99.90;;;;;;5016311;28;20186;-67
2023/11/12 00:33:59;;;;;;;2.60;2.10;;;4.60;99.90;;;;;;5015857;28;20701;-68
2023/11/12 00:36:25;;;;;;;2.77;2.57;;;4.60;99.90;;;;;;5015995;28;20179;-68
2023/11/12 00:38:51;;;;;;;2.10;2.00;;;4.60;99.90;;;;;;5016008;28;20201;-68
2023/11/12 00:41:20;;;;;;;2.37;1.97;;;4.60;99.90;;;;;;5015893;28;20856;-67
2023/11/12 00:43:45;;;;;;;2.70;2.00;;;4.70;99.90;;;;;;5015576;28;20175;-68
2023/11/12 00:46:11;;;;;;;3.57;1.70;;;4.70;99.90;;;;;;5016020;28;20479;-68
2023/11/12 00:48:37;;;;;;;1.77;1.60;;;4.70;99.90;;;;;;5015675;28;20266;-68
2023/11/12 00:51:03;;;;;;;3.17;1.93;;;4.80;99.90;;;;;;5015883;28;20171;-68
2023/11/12 00:53:30;;;;;;;2.27;1.83;;;4.80;99.90;;;;;;5015342;28;20902;-68
2023/11/12 00:55:59;;;;;;;3.60;1.90;;;4.90;99.90;;;;;;5015677;28;20417;-68
2023/11/12 00:58:25;;;;;;;1.60;1.50;;;4.90;99.90;;;;;;5015431;28;20464;-68
2023/11/12 01:00:52;;;;;;;3.10;2.13;;;4.90;99.90;;;;;;5015535;28;20421;-67
2023/11/12 01:03:17;;;;;;;3.90;2.13;;;5.00;99.90;;;;;;5015156;28;20823;-67
2023/11/12 01:05:43;;;;;;;2.20;1.70;;;5.00;99.90;;;;;;5015471;28;20406;-68
2023/11/12 01:08:08;;;;;;;3.07;1.77;;;5.00;99.90;;;;;;5015385;28;20585;-68
2023/11/12 01:10:34;;;;;;;3.23;1.63;;;5.00;99.90;;;;;;5015357;28;20171;-67
2023/11/12 01:12:59;;;;;;;5.53;2.17;;;5.00;99.90;;;;;;5015019;28;20166;-68
2023/11/12 01:15:26;;;;;;;1.93;1.83;;;5.00;99.90;;;;;;5015376;28;20171;-68
2023/11/12 01:17:52;;;;;;;2.13;1.97;;;5.00;99.90;;;;;;5014993;28;20167;-68
2023/11/12 01:20:17;;;;;;;2.07;1.60;;;5.00;99.90;;;;;;5015225;28;20950;-68
2023/11/12 01:22:43;;;;;;;2.20;1.90;;;5.00;99.90;;;;;;5014782;28;20500;-68
2023/11/12 01:25:08;;;;;;;1.87;1.77;;;5.00;99.90;;;;;;5015138;28;20181;-68
2023/11/12 01:27:34;;;;;;;2.50;2.00;;;5.00;99.90;;;;;;5014986;28;20171;-68
2023/11/12 01:30:00;;;;;;;4.10;1.93;;;5.10;99.90;;;;;;5014954;28;20191;-68
2023/11/12 01:32:26;;;;;;;4.07;2.20;;;5.00;99.90;;;;;;5014003;28;20425;-68
2023/11/12 01:34:52;;;;;;;4.20;1.93;;;5.00;99.90;;;;;;5014635;28;20457;-67
2023/11/12 01:37:18;;;;;;;1.90;1.80;;;5.00;99.90;;;;;;5014915;28;20210;-68
2023/11/12 01:39:46;;;;;;;2.40;1.70;;;5.00;99.90;;;;;;5014923;28;20240;-67
2023/11/12 01:42:12;;;;;;;1.70;1.53;;;5.10;99.90;;;;;;5014691;28;20199;-67
2023/11/12 01:44:38;;;;;;;2.83;2.00;;;5.00;99.90;;;;;;5013137;28;20475;-67
2023/11/12 01:47:06;;;;;;;1.97;1.87;;;5.10;99.90;;;;;;5014683;28;20179;-68
2023/11/12 01:49:36;;;;;;;1.93;1.83;;;5.10;99.90;;;;;;5014523;28;20561;-68
2023/11/12 01:52:05;;;;;;;2.77;2.00;;;5.10;99.90;;;;;;5014501;28;20939;-68
2023/11/12 01:54:37;;;;;;;1.60;1.50;;;5.20;99.90;;;;;;5014205;28;20999;-68
2023/11/12 01:57:04;;;;;;;2.37;1.40;;;5.20;99.90;;;;;;5014527;28;20434;-67
2023/11/12 01:59:34;;;;;;;3.83;1.70;;;5.20;99.90;;;;;;5014436;28;20856;-67
2023/11/12 02:02:00;;;;;;;1.83;1.30;;;5.20;99.90;;;;;;5014358;28;20860;-68
2023/11/12 02:04:26;;;;;;;4.13;1.67;;;5.20;99.90;;;;;;5014098;28;20497;-68
2023/11/12 02:06:52;;;;;;;1.40;1.30;;;5.20;99.90;;;;;;5014343;28;20414;-67
2023/11/12 02:09:18;;;;;;;1.60;1.50;;;5.20;99.90;;;;;;5013714;28;20516;-68
2023/11/12 02:11:45;;;;;;;1.77;1.67;;;5.20;99.90;;;;;;5014203;28;20735;-67
2023/11/12 02:14:11;;;;;;;4.27;1.60;;;5.20;99.90;;;;;;5013927;28;20501;-68
2023/11/12 02:16:36;;;;;;;1.60;1.50;;;5.20;99.90;;;;;;5014212;28;20649;-68
2023/11/12 02:19:02;;;;;;;3.13;1.30;;;5.30;99.90;;;;;;5013874;28;20207;-67
2023/11/12 02:21:32;;;;;;;1.80;1.70;;;5.30;99.90;;;;;;5013974;28;20174;-68
2023/11/12 02:23:58;;;;;;;1.80;1.50;;;5.30;99.90;;;;;;5013780;28;20225;-68
2023/11/12 02:26:24;;;;;;;2.60;2.07;;;5.30;99.90;;;;;;5014028;28;20911;-68
2023/11/12 02:28:49;;;;;;;2.03;1.13;;;5.30;99.90;;;;;;5013767;28;20447;-68
2023/11/12 02:31:15;;;;;;;1.97;1.27;;;5.30;99.90;;;;;;5013859;28;20178;-67
2023/11/12 02:33:43;;;;;;;1.70;1.30;;;5.40;99.90;;;;;;5013525;28;20202;-68
2023/11/12 02:36:09;;;;;;;1.63;1.50;;;5.40;99.90;;;;;;5013830;28;20414;-68
2023/11/12 02:38:34;;;;;;;1.33;1.23;;;5.40;99.90;;;;;;5013697;28;20810;-68
2023/11/12 02:41:03;;;;;;;1.93;1.20;;;5.40;99.90;;;;;;5013682;28;20666;-68
2023/11/12 02:43:29;;;;;;;2.20;1.67;;;5.40;99.90;;;;;;5011915;28;20228;-68
2023/11/12 02:45:57;;;;;;;4.50;1.50;;;5.40;99.90;;;;;;5013635;28;20433;-68
2023/11/12 02:48:23;;;;;;;2.80;1.43;;;5.30;99.90;;;;;;5013404;28;20198;-68
2023/11/12 02:50:49;;;;;;;2.33;1.30;;;5.20;99.90;;;;;;5013530;28;20421;-67
2023/11/12 02:53:14;;;;;;;1.53;1.17;;;5.20;99.90;;;;;;5013241;28;20182;-67
2023/11/12 02:55:40;;;;;;;1.60;1.50;;;5.00;99.90;;;;;;5013421;28;20171;-68
2023/11/12 02:58:06;;;;;;;1.50;1.40;;;5.00;99.90;;;;;;5013344;28;20210;-68
2023/11/12 03:00:33;;;;;;;2.70;2.07;;;4.90;99.90;;;;;;5013335;28;20422;-68
2023/11/12 03:03:00;;;;;;;3.20;1.40;;;4.80;99.90;;;;;;5012971;28;20568;-68
2023/11/12 03:05:28;;;;;;;1.67;1.57;;;4.70;99.90;;;;;;5013260;28;20430;-68
2023/11/12 03:07:54;;;;;;;3.17;2.07;;;4.60;99.90;;;;;;5012796;28;20432;-68
2023/11/12 03:10:20;;;;;;;1.70;1.60;;;4.50;99.90;;;;;;5013125;28;20485;-68
2023/11/12 03:12:46;;;;;;;3.13;1.27;;;4.50;99.90;;;;;;5012843;28;20460;-67
2023/11/12 03:15:12;;;;;;;3.03;1.40;;;4.40;99.90;;;;;;5013090;28;20795;-67
2023/11/12 03:17:39;;;;;;;2.00;1.80;;;4.30;99.90;;;;;;5013063;28;20418;-68
2023/11/12 03:20:09;;;;;;;2.63;1.60;;;4.30;99.90;;;;;;5012861;28;20210;-68
2023/11/12 03:22:36;;;;;;;2.00;1.53;;;4.30;99.90;;;;;;5012556;28;20519;-67
2023/11/12 03:25:04;;;;;;;3.70;1.23;;;4.20;99.90;;;;;;5011660;28;20505;-68
2023/11/12 03:27:30;;;;;;;1.50;1.40;;;4.10;99.90;;;;;;5012910;28;20453;-67
2023/11/12 03:29:56;;;;;;;1.70;1.60;;;4.00;99.90;;;;;;5012764;28;20440;-68
2023/11/12 03:32:22;;;;;;;1.57;1.47;;;4.00;99.90;;;;;;5012682;28;20449;-68
2023/11/12 03:34:53;;;;;;;2.30;1.60;;;4.00;99.90;;;;;;5012498;28;20209;-67
2023/11/12 03:37:22;;;;;;;3.63;1.40;;;4.00;99.90;;;;;;5012680;28;20418;-68
2023/11/12 03:39:48;;;;;;;1.67;1.57;;;4.00;99.90;;;;;;5012650;28;20886;-68
2023/11/12 03:42:18;;;;;;;2.43;1.70;;;4.00;99.90;;;;;;5012665;28;20858;-67
2023/11/12 03:44:44;;;;;;;2.90;1.30;;;4.00;99.90;;;;;;5012313;28;20425;-68
2023/11/12 03:47:10;;;;;;;2.13;1.70;;;4.00;99.90;;;;;;5012548;28;20422;-68
2023/11/12 03:49:37;;;;;;;1.87;1.70;;;4.00;99.90;;;;;;5012399;28;20835;-68
2023/11/12 03:52:03;;;;;;;2.10;1.70;;;4.00;99.90;;;;;;5012525;28;20417;-68
2023/11/12 03:54:28;;;;;;;5.50;1.53;;;4.00;99.90;;;;;;5011779;28;20432;-68
2023/11/12 03:56:54;;;;;;;2.03;1.80;;;3.90;99.90;;;;;;5012499;28;20820;-67
2023/11/12 03:59:20;;;;;;;1.70;1.60;;;3.90;99.90;;;;;;5012342;28;20187;-68
2023/11/12 04:01:46;;;;;;;1.80;1.30;;;3.90;99.90;;;;;;5012288;28;20222;-68
2023/11/12 04:04:11;;;;;;;6.20;2.33;;;3.80;99.90;;;;;;5011992;28;20973;-68
2023/11/12 04:06:37;;;;;;;1.70;1.53;;;3.80;99.90;;;;;;5012416;28;20190;-68
2023/11/12 04:09:02;;;;;;;2.73;1.50;;;3.80;99.90;;;;;;5011755;28;20186;-68
2023/11/12 04:11:28;;;;;;;2.00;1.83;;;3.80;99.90;;;;;;5012332;28;20261;-67
2023/11/12 04:13:53;;;;;;;2.60;2.03;;;3.80;99.90;;;;;;5012009;28;20640;-68
2023/11/12 04:16:19;;;;;;;2.63;1.70;;;3.80;99.90;;;;;;5012151;28;20549;-67
2023/11/12 04:18:47;;;;;;;4.43;1.47;;;3.70;99.90;;;;;;5012020;28;20207;-67
2023/11/12 04:21:13;;;;;;;5.60;1.80;;;3.70;99.90;;;;;;5012212;28;20445;-68
2023/11/12 04:23:39;;;;;;;3.03;1.90;;;3.70;99.90;;;;;;5010575;28;20849;-68
2023/11/12 04:26:05;;;;;;;1.90;1.80;;;3.70;99.90;;;;;;5012109;28;20430;-67
2023/11/12 04:28:31;;;;;;;3.23;2.00;;;3.80;99.90;;;;;;5012145;28;20570;-67
2023/11/12 04:30:57;;;;;;;2.37;2.17;;;3.80;99.90;;;;;;5012020;28;20432;-67
2023/11/12 04:33:22;;;;;;;2.17;1.97;;;3.80;99.90;;;;;;5011810;28;20175;-68
2023/11/12 04:35:49;;;;;;;1.97;1.40;;;3.80;99.90;;;;;;5012065;28;20656;-68
2023/11/12 04:38:16;;;;;;;1.60;1.50;;;3.80;99.90;;;;;;5012035;28;20225;-67
2023/11/12 04:40:43;;;;;;;1.83;1.73;;;3.70;99.90;;;;;;5012067;28;20429;-67
2023/11/12 04:43:09;;;;;;;2.30;2.10;;;3.70;99.90;;;;;;5011634;28;20548;-67
2023/11/12 04:45:35;;;;;;;2.83;2.20;;;3.70;99.90;;;;;;5011829;28;20424;-67
2023/11/12 04:48:00;;;;;;;2.67;2.47;;;3.70;99.90;;;;;;5011909;28;20421;-70
2023/11/12 04:50:26;;;;;;;2.40;1.80;;;3.70;99.90;;;;;;5011922;28;20199;-67
2023/11/12 04:52:52;;;;;;;2.03;1.80;;;3.70;99.90;;;;;;5011655;28;20193;-67
2023/11/12 04:55:18;;;;;;;4.33;2.07;;;3.70;99.90;;;;;;5011914;28;20175;-67
2023/11/12 04:57:44;;;;;;;1.50;1.40;;;3.70;99.90;;;;;;5011929;28;20429;-67
2023/11/12 05:00:10;;;;;;;1.80;1.70;;;3.70;99.90;;;;;;5011671;28;20516;-67
2023/11/12 05:02:35;;;;;;;3.10;1.83;;;3.70;99.90;;;;;;5011428;28;20675;-67
2023/11/12 05:05:01;;;;;;;3.20;1.57;;;3.70;99.90;;;;;;5011804;28;20571;-68
2023/11/12 05:07:26;;;;;;;1.60;1.50;;;3.70;99.90;;;;;;5013367;28;20695;-67
2023/11/12 05:09:52;;;;;;;2.63;1.90;;;3.70;99.90;;;;;;5014878;28;20241;-67
2023/11/12 05:12:17;;;;;;;2.13;1.93;;;3.60;99.90;;;;;;5015407;28;20290;-68
2023/11/12 05:14:43;;;;;;;1.90;1.77;;;3.70;99.90;;;;;;5015225;28;20171;-68
2023/11/12 05:17:08;;;;;;;2.50;1.70;;;3.60;99.90;;;;;;5015335;28;20202;-68
2023/11/12 05:19:34;;;;;;;2.57;1.73;;;3.60;99.90;;;;;;5040232;23;20744;-70
2023/11/12 05:21:59;;;;;;;2.60;1.90;;;3.60;99.90;;;;;;5034780;28;20590;-70
2023/11/12 05:24:25;;;;;;;3.23;1.73;;;3.70;99.90;;;;;;5034487;28;20175;-70
2023/11/12 05:26:51;;;;;;;2.57;1.70;;;3.60;99.90;;;;;;5034878;28;20170;-70
2023/11/12 05:29:16;;;;;;;1.80;1.70;;;3.60;99.90;;;;;;5034671;28;20186;-71
2023/11/12 05:31:42;;;;;;;5.17;2.40;;;3.60;99.90;;;;;;5034882;28;20173;-70
2023/11/12 05:34:07;;;;;;;2.73;2.20;;;3.60;99.90;;;;;;5034515;28;20800;-70
2023/11/12 05:36:33;;;;;;;2.27;1.90;;;3.60;99.90;;;;;;5034749;28;20249;-70
2023/11/12 05:38:58;;;;;;;2.23;2.03;;;3.60;99.90;;;;;;5034673;28;20601;-70
2023/11/12 05:41:24;;;;;;;1.73;1.63;;;3.60;99.90;;;;;;5034518;28;20177;-70
2023/11/12 05:43:50;;;;;;;2.27;1.97;;;3.60;99.90;;;;;;5034256;28;20249;-70
2023/11/12 05:46:16;;;;;;;2.00;1.90;;;3.70;99.90;;;;;;5034571;28;20191;-70
2023/11/12 05:48:41;;;;;;;2.23;2.03;;;3.70;99.90;;;;;;5034415;28;20527;-70
2023/11/12 05:51:08;;;;;;;1.73;1.60;;;3.70;99.90;;;;;;5034509;28;20167;-71
2023/11/12 05:53:34;;;;;;;1.83;1.53;;;3.70;99.90;;;;;;5034129;28;20205;-70
2023/11/12 05:56:00;;;;;;;2.30;2.10;;;3.70;99.90;;;;;;5034319;28;20461;-70
2023/11/12 05:58:25;;;;;;;5.53;2.13;;;3.60;99.90;;;;;;5034195;28;20232;-70
2023/11/12 06:00:54;;;;;;;1.83;1.73;;;3.60;99.90;;;;;;5034271;28;20186;-70
2023/11/12 06:03:21;;;;;;;2.63;2.43;;;3.60;99.90;;;;;;5033892;28;20281;-70
2023/11/12 06:05:46;;;;;;;2.70;2.43;;;3.60;99.90;;;;;;5034181;28;20413;-70
2023/11/12 06:08:12;;;;;;;1.73;1.63;;;3.60;99.90;;;;;;5034087;28;20413;-70
2023/11/12 06:10:38;;;;;;;9.77;2.30;;;3.50;99.90;;;;;;5034027;28;20162;-70
2023/11/12 06:13:04;;;;;;;2.47;2.27;;;3.50;99.90;;;;;;5033676;28;20188;-70
2023/11/12 06:15:29;;;;;;;2.30;2.10;;;3.50;99.90;;;;;;5034019;28;20850;-70
2023/11/12 06:17:55;;;;;;;3.17;2.20;;;3.50;99.90;;;;;;5033634;28;20425;-70
2023/11/12 06:20:21;;;;;;;4.00;2.50;;;3.50;99.90;;;;;;5033757;28;20319;-70
2023/11/12 06:22:47;;;;;;;5.27;2.60;;;3.60;99.90;;;;;;5033473;28;20623;-70
2023/11/12 06:25:12;;;;;;;4.50;2.90;;;3.50;99.90;;;;;;5033736;28;20417;-70
2023/11/12 06:27:39;;;;;;;2.50;1.93;;;3.50;99.90;;;;;;5033804;28;20560;-70
2023/11/12 06:30:05;;;;;;;3.07;2.77;;;3.50;99.90;;;;;;5033659;28;20471;-70
2023/11/12 06:32:31;;;;;;;3.10;2.90;;;3.50;99.90;;;;;;5033508;28;20417;-70
2023/11/12 06:34:56;;;;;;;3.17;2.90;;;3.40;99.90;;;;;;5033450;28;20781;-70
2023/11/12 06:37:22;;;;;;;4.10;2.60;;;3.50;99.90;;;;;;5033560;28;20174;-70
2023/11/12 06:39:47;;;;;;;3.47;3.17;;;3.50;99.90;;;;;;5033452;28;20194;-70
2023/11/12 06:42:13;;;;;;;2.13;2.03;;;3.50;99.90;;;;;;5033351;28;20217;-70
2023/11/12 06:44:38;;;;;;;4.13;2.47;;;3.50;99.90;;;;;;5033170;28;20174;-70
2023/11/12 06:47:04;;;;;;;5.40;2.40;;;3.60;99.90;;;;;;5033446;28;20174;-71
2023/11/12 06:49:31;;;;;;;3.87;3.00;;;3.60;99.90;;;;;;5033268;28;20603;-70
2023/11/12 06:51:57;;;;;;;3.17;2.70;;;3.60;99.90;;;;;;5033263;28;20425;-70
2023/11/12 06:54:23;;;;;;;3.93;2.50;;;3.70;99.90;;;;;;5032949;28;20425;-70
2023/11/12 06:56:49;;;;;;;3.03;2.57;;;3.70;99.90;;;;;;5033241;28;20452;-70
2023/11/12 06:59:14;;;;;;;3.60;3.30;;;3.70;99.90;;;;;;5033086;28;20549;-70
2023/11/12 07:01:40;;;;;;;2.73;2.50;;;3.80;99.90;;;;;;5032992;28;20635;-70
2023/11/12 07:04:06;;;;;;;2.80;2.40;;;3.80;99.90;;;;;;5032810;28;20224;-70
2023/11/12 07:06:32;;;;;;;6.97;2.87;;;3.80;99.90;;;;;;5033071;28;20178;-70
2023/11/12 07:08:58;;;;;;;3.00;2.80;;;3.80;99.90;;;;;;5032865;28;20437;-70
2023/11/12 07:11:23;;;;;;;5.10;3.53;;;3.90;99.90;;;;;;5032890;28;20417;-71
2023/11/12 07:13:49;;;;;;;5.93;3.17;;;3.80;99.90;;;;;;5032658;28;20591;-70
2023/11/12 07:16:19;;;;;;;3.30;3.00;;;3.90;99.90;;;;;;5033040;28;20174;-70
2023/11/12 07:18:45;;;;;;;4.17;3.63;;;4.00;99.90;;;;;;5032619;28;20210;-70
2023/11/12 07:21:12;;;;;;;6.50;3.80;;;4.10;99.90;;;;;;5032853;28;20463;-71
2023/11/12 07:23:38;;;;;;;4.63;3.77;;;4.10;99.90;;;;;;5032351;28;20640;-70
2023/11/12 07:26:04;;;;;;;5.07;4.10;;;4.20;99.90;;;;;;5032699;28;20425;-71
2023/11/12 07:28:29;;;;;;;4.60;4.20;;;4.20;99.90;;;;;;5032549;28;20427;-71
2023/11/12 07:30:55;;;;;;;4.60;4.20;;;4.20;99.90;;;;;;5032004;28;20428;-71
2023/11/12 07:33:21;;;;;;;5.03;4.37;;;4.30;99.90;;;;;;5032396;28;20204;-71
2023/11/12 07:35:48;;;;;;;3.70;3.40;;;4.30;99.90;;;;;;5032498;28;20171;-70
2023/11/12 07:38:14;;;;;;;3.80;3.40;;;4.30;99.90;;;;;;5032338;28;20427;-70
2023/11/12 07:40:41;;;;;;;4.90;3.70;;;4.30;99.90;;;;;;5032326;28;20496;-71
2023/11/12 07:43:07;;;;;;;3.90;3.60;;;4.30;99.90;;;;;;5032046;28;20284;-71
2023/11/12 07:45:33;;;;;;;7.83;4.57;;;4.40;99.90;;;;;;5032377;28;20856;-71
2023/11/12 07:47:59;;;;;;;4.43;3.80;;;4.40;99.90;;;;;;5032359;28;20425;-71
2023/11/12 07:50:25;;;;;;;6.13;3.37;;;4.40;99.90;;;;;;5032262;28;20437;-71
2023/11/12 07:52:50;;;;;;;3.63;3.33;;;4.50;99.90;;;;;;5031965;28;20799;-71
2023/11/12 07:55:16;;;;;;;3.93;3.60;;;4.60;99.90;;;;;;5032209;28;20185;-71
2023/11/12 07:57:42;;;;;;;4.43;3.97;;;4.70;99.90;;;;;;5032253;28;20261;-70
2023/11/12 08:00:12;;;;;;;4.13;3.73;;;4.80;99.90;;;;;;5032089;28;20530;-71
2023/11/12 08:02:39;;;;;;;4.53;3.40;;;4.80;99.90;;;;;;5031930;28;20194;-70
2023/11/12 08:05:07;;;;;;;3.73;3.33;;;4.90;99.90;;;;;;5032120;28;20431;-69
2023/11/12 08:07:33;;;;;;;4.00;3.70;;;5.00;99.90;;;;;;5032113;28;20515;-70
2023/11/12 08:09:59;;;;;;;6.40;4.07;;;5.10;99.90;;;;;;5032031;28;20520;-70
2023/11/12 08:12:24;;;;;;;3.40;3.10;;;5.10;99.90;;;;;;5032235;28;20200;-70
2023/11/12 08:14:50;;;;;;;4.50;4.10;;;5.20;99.90;;;;;;5031738;28;20174;-69
2023/11/12 08:17:17;;;;;;;5.67;4.50;;;5.30;99.90;;;;;;5032001;28;20172;-69
2023/11/12 08:19:42;;;;;;;5.40;4.90;;;5.40;99.90;;;;;;5031705;28;20841;-71
2023/11/12 08:22:08;;;;;;;7.57;5.57;;;5.40;99.90;;;;;;5031846;28;20468;-72
2023/11/12 08:24:33;;;;;;;7.27;5.50;;;5.50;99.90;;;;;;5031588;28;20167;-72
2023/11/12 08:26:59;;;;;;;4.53;4.13;;;5.60;99.90;;;;;;5031882;28;20162;-72
2023/11/12 08:29:25;;;;;;;4.90;4.07;;;5.80;99.90;;;;;;5031822;28;20190;-72
2023/11/12 08:31:50;;;;;;;3.90;3.60;;;5.80;99.90;;;;;;5031841;28;20178;-72
2023/11/12 08:34:20;;;;;;;3.97;3.57;;;5.70;99.90;;;;;;5031510;28;20170;-72
2023/11/12 08:36:46;;;;;;;6.53;4.40;;;6.10;99.90;;;;;;5031768;28;20210;-72
2023/11/12 08:39:13;;;;;;;6.30;4.40;;;6.70;99.90;;;;;;5031682;28;20472;-72
2023/11/12 08:41:38;;;;;;;4.77;4.10;;;7.30;99.90;;;;;;5033615;28;20162;-72
2023/11/12 08:44:04;;;;;;;4.30;4.00;;;8.30;99.90;;;;;;5035452;28;20445;-72
2023/11/12 08:46:29;;;;;;;4.17;3.47;;;8.80;99.90;;;;;;5035696;28;20671;-70
2023/11/12 08:48:55;;;;;;;4.27;3.57;;;8.80;99.90;;;;;;5035439;28;20187;-70
2023/11/12 08:51:20;;;;;;;4.43;2.80;;;8.80;99.90;;;;;;5035624;28;20182;-70
2023/11/12 08:53:46;;;;;;;4.20;3.60;;;8.80;99.90;;;;;;5035259;28;20167;-70
2023/11/12 08:56:12;;;;;;;6.17;3.63;;;8.30;99.90;;;;;;5035484;28;20662;-70
2023/11/12 08:58:37;;;;;;;3.53;3.23;;;8.20;99.90;;;;;;5035426;28;20570;-70
2023/11/12 09:01:08;;;;;;;3.67;3.37;;;9.00;99.90;;;;;;5035461;28;20229;-70
2023/11/12 09:03:34;;;;;;;4.07;3.67;;;9.40;99.90;;;;;;5035045;28;20439;-71
2023/11/12 09:05:59;;;;;;;4.20;3.80;;;9.50;99.90;;;;;;5035296;28;20423;-70
2023/11/12 09:08:25;;;;;;;3.77;3.40;;;9.40;99.90;;;;;;5035200;28;20170;-71
2023/11/12 09:10:51;;;;;;;3.90;3.60;;;8.70;99.90;;;;;;5035322;28;20164;-70
2023/11/12 09:13:16;;;;;;;3.50;3.13;;;8.20;99.90;;;;;;5034903;28;20198;-70
2023/11/12 09:15:42;;;;;;;4.23;3.73;;;7.90;99.90;;;;;;5035044;28;20436;-70
2023/11/12 09:18:08;;;;;;;4.97;3.90;;;7.20;99.90;;;;;;5035029;28;20166;-71
2023/11/12 09:20:33;;;;;;;4.00;3.70;;;7.00;99.90;;;;;;5034897;28;20456;-72
2023/11/12 09:22:59;;;;;;;3.77;3.47;;;6.80;99.90;;;;;;5034669;28;20202;-72
2023/11/12 09:25:24;;;;;;;5.63;3.93;;;6.70;99.90;;;;;;5035000;28;20623;-72
2023/11/12 09:27:51;;;;;;;4.83;4.30;;;6.60;99.90;;;;;;5035024;28;20201;-72
2023/11/12 09:30:17;;;;;;;5.40;4.07;;;6.70;99.90;;;;;;5034778;28;20193;-72
2023/11/12 09:32:42;;;;;;;5.10;4.60;;;6.70;99.90;;;;;;5034451;28;20503;-70
2023/11/12 09:35:08;;;;;;;3.70;3.40;;;6.60;99.90;;;;;;5034759;28;20510;-70
2023/11/12 09:37:34;;;;;;;4.47;4.00;;;6.70;99.90;;;;;;5034649;28;20166;-70
2023/11/12 09:40:00;;;;;;;4.60;4.20;;;6.70;99.90;;;;;;5034594;28;20471;-70
2023/11/12 09:42:27;;;;;;;4.40;3.47;;;6.80;99.90;;;;;;5034520;28;20463;-70
2023/11/12 09:44:56;;;;;;;4.47;4.00;;;7.20;99.90;;;;;;5034312;28;20547;-70
2023/11/12 09:47:40;;;;;;;5.53;4.40;;;7.60;99.90;;;;;;5034437;28;20409;-71
2023/11/12 09:50:10;;;;;;;4.57;4.03;;;7.70;99.90;;;;;;5034467;28;20493;-72
2023/11/12 09:52:36;;;;;;;4.30;3.90;;;7.60;99.90;;;;;;5033368;28;20788;-71
2023/11/12 09:55:02;;;;;;;5.53;4.43;;;7.50;99.90;;;;;;5034458;28;20435;-72
2023/11/12 09:57:29;;;;;;;4.30;3.90;;;7.20;99.90;;;;;;5034362;28;20174;-72
2023/11/12 09:59:54;;;;;;;3.77;3.47;;;7.20;99.90;;;;;;5034197;28;20436;-72
2023/11/12 10:02:22;;;;;;;7.57;2.60;;;7.40;99.90;;;;;;5034119;28;20468;-70
2023/11/12 10:04:59;;;;;;;3.47;2.90;;;7.20;99.90;;;;;;5033923;28;20162;-71
2023/11/12 10:07:25;;;;;;;4.10;3.40;;;7.20;99.90;;;;;;5034119;28;20498;-72
2023/11/12 10:09:54;;;;;;;2.70;2.50;;;7.20;99.90;;;;;;5034019;28;20829;-72
2023/11/12 10:12:20;;;;;;;2.70;2.50;;;7.50;99.90;;;;;;5033987;28;20472;-72
2023/11/12 10:14:46;;;;;;;4.03;3.63;;;7.60;99.90;;;;;;5033697;28;20865;-72
2023/11/12 10:17:11;;;;;;;2.87;2.67;;;7.40;99.90;;;;;;5033897;28;20784;-72
2023/11/12 10:19:37;;;;;;;2.90;2.60;;;7.40;99.90;;;;;;5033736;28;20551;-72
2023/11/12 10:22:06;;;;;;;4.20;2.77;;;7.30;99.90;;;;;;5033694;28;20209;-72
2023/11/12 10:24:42;;;;;;;2.73;2.53;;;7.20;99.90;;;;;;5033565;28;20244;-72
2023/11/12 10:27:11;;;;;;;2.50;2.30;;;7.00;99.90;;;;;;5033933;28;20451;-72
2023/11/12 10:29:37;;;;;;;6.00;3.17;;;6.80;99.90;;;;;;5033659;28;20437;-72
2023/11/12 10:32:02;;;;;;;3.43;2.87;;;6.90;99.90;;;;;;5033700;28;20798;-72
2023/11/12 10:34:28;;;;;;;7.53;2.97;;;7.00;99.90;;;;;;5033421;28;20215;-72
2023/11/12 10:37:17;;;;;;;3.63;3.33;;;7.00;99.90;;;;;;5033563;28;20178;-72
2023/11/12 10:39:44;;;;;;;3.00;2.67;;;7.00;99.90;;;;;;5033532;28;20190;-72
2023/11/12 10:42:19;;;;;;;3.07;2.77;;;7.00;99.90;;;;;;5033491;28;20470;-72
2023/11/12 10:44:45;;;;;;;3.80;2.83;;;6.90;99.90;;;;;;5033215;28;20412;-72
2023/11/12 10:47:11;;;;;;;4.97;3.00;;;6.90;99.90;;;;;;5033424;28;20484;-72
2023/11/12 10:49:40;;;;;;;3.17;2.83;;;7.00;99.90;;;;;;5033320;28;20921;-72
2023/11/12 10:52:08;;;;;;;4.40;2.83;;;7.00;99.90;;;;;;5033160;28;20425;-72
2023/11/12 10:54:36;;;;;;;3.43;3.13;;;6.90;99.90;;;;;;5032725;28;20444;-72
2023/11/12 10:57:02;;;;;;;3.87;3.47;;;6.90;99.90;;;;;;5033031;28;20948;-72
2023/11/12 10:59:29;;;;;;;6.23;4.93;;;6.90;99.90;;;;;;5033093;28;20440;-72
2023/11/12 11:01:59;;;;;;;11.50;4.60;;;6.90;99.90;;;;;;5033064;28;20543;-72
2023/11/12 11:04:26;;;;;;;4.50;3.50;;;7.10;99.90;;;;;;5031791;28;20417;-72
2023/11/12 11:06:52;;;;;;;3.27;2.50;;;7.30;99.90;;;;;;5032952;28;20910;-72
2023/11/12 11:09:19;;;;;;;6.00;2.60;;;7.40;99.90;;;;;;5032896;28;20479;-72
2023/11/12 11:11:49;;;;;;;3.23;2.30;;;7.40;99.90;;;;;;5032972;28;20166;-72
2023/11/12 11:14:27;;;;;;;4.97;2.57;;;7.30;99.90;;;;;;5032663;28;20421;-72
2023/11/12 11:16:53;;;;;;;2.90;2.23;;;7.20;99.90;;;;;;5032773;28;20421;-72
2023/11/12 11:19:44;;;;;;;4.37;2.60;;;7.20;99.90;;;;;;5033105;28;20464;-72
2023/11/12 11:22:32;;;;;;;5.73;4.40;;;7.20;99.90;;;;;;5032441;28;20523;-72
2023/11/12 11:24:58;;;;;;;4.77;3.63;;;7.20;99.90;;;;;;5032596;28;20448;-72
2023/11/12 11:27:25;;;;;;;5.40;4.20;;;7.10;99.90;;;;;;5032620;28;20495;-72
2023/11/12 11:30:23;;;;;;;9.13;6.90;;;7.00;99.90;;;;;;5032587;28;20473;-72
2023/11/12 11:32:51;;;;;;;9.27;5.40;;;7.10;99.90;;;;;;5032332;28;20417;-72
2023/11/12 11:35:17;;;;;;;4.50;3.90;;;7.00;99.90;;;;;;5032480;28;20428;-71
2023/11/12 11:38:14;;;;;;;4.80;3.43;;;7.20;99.90;;;;;;5032579;28;20417;-72
2023/11/12 11:40:42;;;;;;;3.60;3.30;;;7.20;99.90;;;;;;5032324;28;20747;-72
2023/11/12 11:43:23;;;;;;;5.20;2.90;;;7.20;99.90;;;;;;5032129;28;20487;-72
2023/11/12 11:46:11;;;;;;;3.80;3.43;;;7.30;99.90;;;;;;5032356;28;20776;-72
2023/11/12 11:48:54;;;;;;;4.33;3.57;;;7.50;99.90;;;;;;5032330;28;20465;-72
2023/11/12 11:51:37;;;;;;;3.43;3.13;;;7.60;99.90;;;;;;5032311;28;20493;-72
2023/11/12 11:54:06;;;;;;;4.70;4.17;;;7.70;99.90;;;;;;5032039;28;20471;-72
2023/11/12 11:56:33;;;;;;;5.10;3.67;;;7.80;99.90;;;;;;5032177;28;20516;-70
2023/11/12 11:58:59;;;;;;;5.03;4.40;;;8.00;99.90;;;;;;5032043;28;20435;-70
2023/11/12 12:01:26;;;;;;;3.70;3.10;;;8.00;99.90;;;;;;5032184;28;20417;-70
2023/11/12 12:04:03;;;;;;;3.10;2.80;;;8.20;99.90;;;;;;5031737;28;20198;-70
2023/11/12 12:06:29;;;;;;;4.33;3.20;;;8.00;99.90;;;;;;5032192;28;20877;-70
2023/11/12 12:08:55;;;;;;;3.70;2.70;;;8.00;99.90;;;;;;5031914;28;20443;-71
2023/11/12 12:11:24;;;;;;;6.13;3.30;;;7.90;99.90;;;;;;5032012;28;20416;-72
2023/11/12 12:13:56;;;;;;;3.03;2.77;;;7.80;99.90;;;;;;5031731;28;20417;-72
2023/11/12 12:16:27;;;;;;;2.60;2.40;;;7.80;99.90;;;;;;5031564;28;20449;-72
2023/11/12 12:18:52;;;;;;;3.20;2.67;;;8.00;99.90;;;;;;5031808;28;20464;-72
2023/11/12 12:21:18;;;;;;;2.93;2.70;;;8.20;99.90;;;;;;5031919;28;20957;-72
2023/11/12 12:23:43;;;;;;;3.10;2.90;;;8.30;99.90;;;;;;5031484;28;20753;-72
2023/11/12 12:26:09;;;;;;;3.30;3.00;;;8.60;99.90;;;;;;5032013;28;20194;-72
2023/11/12 12:28:35;;;;;;;4.90;3.70;;;8.70;99.90;;;;;;5031809;28;20659;-70
2023/11/12 12:31:00;;;;;;;4.10;3.40;;;8.80;99.90;;;;;;5031851;28;20170;-71
2023/11/12 12:33:26;;;;;;;5.07;4.07;;;9.00;99.90;;;;;;5031534;28;20170;-72
2023/11/12 12:35:57;;;;;;;4.23;2.90;;;9.20;99.90;;;;;;5031826;28;20174;-70
2023/11/12 12:38:23;;;;;;;4.03;3.20;;;9.00;99.90;;;;;;5031844;28;20640;-70
2023/11/12 12:40:51;;;;;;;2.97;2.70;;;8.90;99.90;;;;;;5031832;28;20457;-70
2023/11/12 12:43:17;;;;;;;3.43;3.13;;;8.90;99.90;;;;;;5031373;28;20198;-70
2023/11/12 12:45:55;;;;;;;3.33;3.07;;;8.80;99.90;;;;;;5031808;28;20480;-70
2023/11/12 12:48:23;;;;;;;4.60;2.93;;;8.70;99.90;;;;;;5031692;28;20169;-70
2023/11/12 12:50:58;;;;;;;2.80;2.60;;;8.60;99.90;;;;;;5031666;28;20871;-70
2023/11/12 12:53:25;;;;;;;3.53;3.23;;;8.50;99.90;;;;;;5031432;28;20413;-70
2023/11/12 12:55:52;;;;;;;4.20;3.47;;;8.50;99.90;;;;;;5031624;28;20956;-70
2023/11/12 12:58:19;;;;;;;3.63;3.33;;;8.40;99.90;;;;;;5031550;28;20423;-70